createdAt,value
2022-11-09T00:00:47.647Z,3.30
2022-11-09T00:03:14.528Z,3.13
2022-11-09T00:05:41.365Z,3.30
2022-11-09T00:08:10.317Z,2.55
2022-11-09T00:10:38.121Z,2.88
2022-11-09T00:13:05.347Z,2.83
2022-11-09T00:15:32.165Z,3.08
2022-11-09T00:18:02.694Z,3.10
2022-11-09T00:20:30.536Z,3.60
2022-11-09T00:22:57.410Z,3.10
2022-11-09T00:25:24.635Z,2.90
2022-11-09T00:27:51.530Z,3.33
2022-11-09T00:30:18.426Z,3.00
2022-11-09T00:32:45.268Z,3.00
2022-11-09T00:35:12.139Z,3.35
2022-11-09T00:37:39.287Z,2.70
2022-11-09T00:40:06.861Z,3.30
2022-11-09T00:42:33.674Z,3.45
2022-11-09T00:45:00.445Z,3.05
2022-11-09T00:47:27.243Z,3.17
2022-11-09T00:49:54.085Z,3.63
2022-11-09T00:52:20.905Z,3.20
2022-11-09T00:54:47.748Z,2.97
2022-11-09T00:57:14.559Z,3.75
2022-11-09T00:59:41.437Z,3.00
2022-11-09T01:02:08.432Z,3.20
2022-11-09T01:04:35.618Z,3.35
2022-11-09T01:07:02.780Z,3.22
2022-11-09T01:09:29.834Z,2.80
2022-11-09T01:11:56.679Z,3.15
2022-11-09T01:14:23.862Z,3.10
2022-11-09T01:16:50.899Z,2.80
2022-11-09T01:19:18.192Z,3.08
2022-11-09T01:21:47.478Z,2.85
2022-11-09T01:24:14.314Z,3.08
2022-11-09T01:26:41.151Z,3.13
2022-11-09T01:29:08.014Z,2.92
2022-11-09T01:31:34.871Z,3.60
2022-11-09T01:34:01.815Z,2.72
2022-11-09T01:36:28.622Z,3.22
2022-11-09T01:38:55.687Z,3.17
2022-11-09T01:41:27.902Z,3.22
2022-11-09T01:44:11.803Z,2.83
2022-11-09T01:46:48.064Z,3.33
2022-11-09T01:49:21.038Z,3.00
2022-11-09T01:51:59.177Z,3.10
2022-11-09T01:54:30.770Z,3.28
2022-11-09T01:57:02.667Z,3.13
2022-11-09T01:59:34.032Z,2.70
2022-11-09T02:02:02.016Z,2.92
2022-11-09T02:04:34.017Z,3.00
2022-11-09T02:07:01.201Z,3.13
2022-11-09T02:09:33.874Z,2.75
2022-11-09T02:12:00.754Z,3.10
2022-11-09T02:14:29.525Z,3.10
2022-11-09T02:16:56.640Z,3.05
2022-11-09T02:19:23.581Z,3.70
2022-11-09T02:21:50.610Z,3.08
2022-11-09T02:24:18.282Z,3.53
2022-11-09T02:26:49.482Z,3.03
2022-11-09T02:29:21.070Z,3.53
2022-11-09T02:31:53.921Z,2.90
2022-11-09T02:34:22.087Z,2.92
2022-11-09T02:36:49.490Z,3.50
2022-11-09T02:39:19.896Z,3.03
2022-11-09T02:41:54.432Z,2.92
2022-11-09T02:44:22.392Z,3.30
2022-11-09T02:46:49.778Z,3.33
2022-11-09T02:49:16.649Z,2.90
2022-11-09T02:51:46.014Z,2.80
2022-11-09T02:56:39.705Z,2.97
2022-11-09T02:59:07.164Z,3.28
2022-11-09T03:01:34.088Z,3.03
2022-11-09T03:04:00.940Z,3.00
2022-11-09T03:06:36.694Z,3.22
2022-11-09T03:09:06.911Z,3.15
2022-11-09T03:11:34.099Z,2.67
2022-11-09T03:14:01.028Z,2.88
2022-11-09T03:16:28.659Z,3.10
2022-11-09T03:18:56.794Z,3.40
2022-11-09T03:21:24.450Z,3.50
2022-11-09T03:23:51.722Z,3.00
2022-11-09T03:26:18.556Z,2.72
2022-11-09T03:28:45.439Z,3.10
2022-11-09T03:31:12.539Z,2.95
2022-11-09T03:33:39.512Z,3.30
2022-11-09T03:36:07.198Z,3.13
2022-11-09T03:38:34.021Z,3.20
2022-11-09T03:41:01.934Z,3.65
2022-11-09T03:43:29.786Z,2.88
2022-11-09T03:45:57.241Z,2.97
2022-11-09T03:48:24.193Z,2.97
2022-11-09T03:50:51.172Z,2.80
2022-11-09T03:53:18.386Z,2.70
2022-11-09T03:55:45.537Z,3.05
2022-11-09T03:58:15.749Z,3.10
2022-11-09T04:00:42.566Z,2.90
2022-11-09T04:03:09.405Z,2.63
2022-11-09T04:05:36.327Z,3.20
2022-11-09T04:08:03.360Z,2.65
2022-11-09T04:10:30.275Z,3.17
2022-11-09T04:12:57.185Z,3.22
2022-11-09T04:15:24.464Z,2.60
2022-11-09T04:17:58.700Z,3.22
2022-11-09T04:20:26.904Z,2.90
2022-11-09T04:23:05.468Z,3.60
2022-11-09T04:25:34.498Z,3.40
2022-11-09T04:28:02.475Z,2.95
2022-11-09T04:30:31.136Z,3.10
2022-11-09T04:32:59.030Z,3.35
2022-11-09T04:35:27.175Z,3.17
2022-11-09T04:37:59.660Z,2.88
2022-11-09T04:40:28.486Z,3.45
2022-11-09T04:42:55.841Z,3.47
2022-11-09T04:45:22.911Z,3.33
2022-11-09T04:47:49.683Z,3.03
2022-11-09T04:50:16.681Z,3.53
2022-11-09T04:52:43.542Z,3.40
2022-11-09T04:55:10.333Z,3.00
2022-11-09T04:57:37.115Z,3.17
2022-11-09T05:00:04.658Z,3.30
2022-11-09T05:02:32.040Z,3.28
2022-11-09T05:04:58.861Z,3.10
2022-11-09T05:07:25.687Z,3.00
2022-11-09T05:09:52.474Z,3.22
2022-11-09T05:12:19.311Z,3.00
2022-11-09T05:14:46.143Z,2.97
2022-11-09T05:17:12.979Z,3.15
2022-11-09T05:19:39.826Z,3.10
2022-11-09T05:22:25.141Z,2.90
2022-11-09T05:24:52.036Z,3.30
2022-11-09T05:27:19.055Z,2.45
2022-11-09T05:29:45.886Z,3.88
2022-11-09T05:32:12.745Z,3.97
2022-11-09T05:34:39.587Z,3.08
2022-11-09T05:37:06.440Z,3.00
2022-11-09T05:39:33.527Z,3.58
2022-11-09T05:42:00.299Z,2.92
2022-11-09T05:44:27.245Z,2.97
2022-11-09T05:46:54.039Z,2.70
2022-11-09T05:49:20.827Z,2.60
2022-11-09T05:51:47.659Z,2.92
2022-11-09T05:54:14.554Z,3.33
2022-11-09T05:56:41.427Z,2.95
2022-11-09T05:59:08.882Z,2.92
2022-11-09T06:01:35.705Z,2.65
2022-11-09T06:04:02.541Z,2.65
2022-11-09T06:06:30.068Z,2.90
2022-11-09T06:08:57.027Z,3.10
2022-11-09T06:11:24.741Z,2.90
2022-11-09T06:13:52.926Z,3.30
2022-11-09T06:16:19.964Z,3.28
2022-11-09T06:18:46.829Z,3.30
2022-11-09T06:21:13.739Z,2.97
2022-11-09T06:23:40.626Z,2.97
2022-11-09T06:26:09.950Z,2.90
2022-11-09T06:31:06.358Z,3.28
2022-11-09T06:33:34.910Z,3.20
2022-11-09T06:36:02.355Z,3.63
2022-11-09T06:38:29.490Z,2.95
2022-11-09T06:40:57.868Z,2.80
2022-11-09T06:43:25.450Z,3.60
2022-11-09T06:45:52.804Z,3.80
2022-11-09T06:48:20.001Z,2.90
2022-11-09T06:50:46.867Z,2.92
2022-11-09T06:53:16.032Z,3.08
2022-11-09T06:55:47.428Z,3.45
2022-11-09T06:58:16.251Z,3.33
2022-11-09T07:00:44.800Z,2.72
2022-11-09T07:03:16.300Z,3.10
2022-11-09T07:05:43.556Z,3.53
2022-11-09T07:08:10.785Z,3.13
2022-11-09T07:10:38.176Z,2.97
2022-11-09T07:13:05.951Z,2.88
2022-11-09T07:15:34.234Z,3.03
2022-11-09T07:18:02.544Z,3.90
2022-11-09T07:20:29.924Z,3.03
2022-11-09T07:22:57.108Z,3.47
2022-11-09T07:25:25.840Z,3.28
2022-11-09T07:27:52.837Z,3.35
2022-11-09T07:30:19.994Z,3.75
2022-11-09T07:33:16.495Z,3.03
2022-11-09T07:35:33.634Z,4.20
2022-11-09T07:38:01.881Z,3.20
2022-11-09T07:40:29.713Z,3.33
2022-11-09T07:43:01.107Z,3.17
2022-11-09T07:45:32.700Z,3.42
2022-11-09T07:48:01.749Z,3.28
2022-11-09T07:50:30.521Z,3.92
2022-11-09T07:52:59.348Z,3.28
2022-11-09T07:55:27.877Z,3.10
2022-11-09T07:58:02.155Z,3.43
2022-11-09T08:00:31.704Z,3.70
2022-11-09T08:02:59.747Z,2.90
2022-11-09T08:05:26.625Z,3.00
2022-11-09T08:08:03.215Z,3.00
2022-11-09T08:10:31.526Z,3.22
2022-11-09T08:13:04.351Z,4.13
2022-11-09T08:15:31.315Z,3.17
2022-11-09T08:18:03.684Z,3.42
2022-11-09T08:20:31.230Z,3.92
2022-11-09T08:23:02.518Z,3.40
2022-11-09T08:25:30.747Z,3.65
2022-11-09T08:27:57.856Z,3.88
2022-11-09T08:30:25.326Z,3.60
2022-11-09T08:32:52.627Z,3.50
2022-11-09T08:35:23.954Z,3.63
2022-11-09T08:37:52.257Z,3.60
2022-11-09T08:40:26.440Z,3.90
2022-11-09T08:42:53.685Z,3.30
2022-11-09T08:45:21.102Z,3.15
2022-11-09T08:47:48.108Z,3.35
2022-11-09T08:50:16.279Z,3.67
2022-11-09T08:52:43.329Z,3.97
2022-11-09T08:55:10.421Z,3.90
2022-11-09T08:57:37.345Z,3.58
2022-11-09T09:00:05.945Z,3.35
2022-11-09T09:02:32.881Z,3.77
2022-11-09T09:04:59.739Z,4.03
2022-11-09T09:07:26.810Z,4.05
2022-11-09T09:09:53.728Z,3.28
2022-11-09T09:12:20.587Z,3.20
2022-11-09T09:14:47.704Z,3.55
2022-11-09T09:17:14.615Z,3.88
2022-11-09T09:19:43.827Z,3.25
2022-11-09T09:22:14.233Z,3.70
2022-11-09T09:24:40.990Z,3.35
2022-11-09T09:27:07.782Z,3.85
2022-11-09T09:29:34.937Z,3.50
2022-11-09T09:32:01.769Z,3.67
2022-11-09T09:34:28.594Z,3.72
2022-11-09T09:36:55.599Z,3.72
2022-11-09T09:39:22.677Z,3.75
2022-11-09T09:41:52.318Z,3.95
2022-11-09T09:44:40.487Z,3.78
2022-11-09T09:47:15.709Z,3.22
2022-11-09T09:49:54.350Z,3.55
2022-11-09T09:52:31.316Z,2.88
2022-11-09T09:55:26.281Z,3.53
2022-11-09T09:57:56.907Z,3.95
2022-11-09T10:00:26.093Z,3.85
2022-11-09T10:02:54.005Z,3.55
2022-11-09T10:05:28.783Z,3.58
2022-11-09T10:08:14.247Z,3.63
2022-11-09T10:10:55.846Z,4.10
2022-11-09T10:13:36.187Z,4.18
2022-11-09T10:16:41.197Z,3.30
2022-11-09T10:19:29.862Z,3.63
2022-11-09T10:22:30.746Z,3.92
2022-11-09T10:25:37.433Z,3.53
2022-11-09T10:28:14.591Z,3.58
2022-11-09T10:30:41.883Z,3.83
2022-11-09T10:33:11.705Z,3.60
2022-11-09T10:35:46.339Z,3.75
2022-11-09T10:38:21.636Z,3.78
2022-11-09T10:41:00.115Z,3.60
2022-11-09T10:43:26.917Z,3.70
2022-11-09T10:46:06.361Z,3.55
2022-11-09T10:48:37.700Z,3.38
2022-11-09T10:51:05.882Z,3.20
2022-11-09T10:53:33.977Z,3.42
2022-11-09T10:56:21.295Z,3.63
2022-11-09T10:58:51.291Z,3.03
2022-11-09T11:01:23.621Z,3.00
2022-11-09T11:03:52.897Z,3.13
2022-11-09T11:06:23.061Z,3.10
2022-11-09T11:09:14.736Z,3.35
2022-11-09T11:11:41.705Z,3.08
2022-11-09T11:14:33.202Z,3.38
2022-11-09T11:17:00.254Z,3.10
2022-11-09T11:19:36.927Z,2.65
2022-11-09T11:22:13.083Z,2.88
2022-11-09T11:25:00.664Z,3.35
2022-11-09T11:27:29.672Z,2.90
2022-11-09T11:30:02.223Z,3.03
2022-11-09T11:32:29.174Z,2.70
2022-11-09T11:35:01.060Z,3.30
2022-11-09T11:37:39.891Z,3.00
2022-11-09T11:40:16.041Z,3.67
2022-11-09T11:42:52.015Z,3.00
2022-11-09T11:45:40.048Z,3.65
2022-11-09T11:48:13.339Z,2.88
2022-11-09T11:50:40.150Z,2.90
2022-11-09T11:53:26.532Z,3.08
2022-11-09T11:55:58.327Z,3.10
2022-11-09T11:58:59.055Z,3.63
2022-11-09T12:01:44.035Z,3.00
2022-11-09T12:04:13.718Z,3.45
2022-11-09T12:07:05.705Z,2.95
2022-11-09T12:09:50.803Z,3.08
2022-11-09T12:12:29.718Z,3.47
2022-11-09T12:14:59.407Z,2.97
2022-11-09T12:17:39.838Z,3.15
2022-11-09T12:20:25.348Z,3.10
2022-11-09T12:23:17.123Z,3.03
2022-11-09T12:25:53.444Z,3.85
2022-11-09T12:28:44.804Z,3.20
2022-11-09T12:31:36.442Z,3.05
2022-11-09T12:34:11.028Z,3.45
2022-11-09T12:36:42.891Z,3.25
2022-11-09T12:39:12.711Z,3.30
2022-11-09T12:41:40.653Z,2.78
2022-11-09T12:44:20.968Z,3.28
2022-11-09T12:46:57.197Z,2.85
2022-11-09T12:49:36.742Z,2.85
2022-11-09T12:52:06.783Z,2.92
2022-11-09T12:54:36.476Z,3.25
2022-11-09T12:57:17.108Z,3.22
2022-11-09T12:59:49.881Z,2.78
2022-11-09T13:02:54.758Z,2.70
2022-11-09T13:05:34.354Z,2.85
2022-11-09T13:08:03.324Z,3.05
2022-11-09T13:10:34.604Z,3.10
2022-11-09T13:13:23.249Z,3.03
2022-11-09T13:16:08.918Z,3.72
2022-11-09T13:18:37.681Z,2.97
2022-11-09T13:21:26.411Z,2.95
2022-11-09T13:24:01.368Z,3.15
2022-11-09T13:26:31.453Z,2.53
2022-11-09T13:29:20.208Z,3.72
2022-11-09T13:32:05.449Z,2.85
2022-11-09T13:34:53.003Z,2.70
2022-11-09T13:37:41.476Z,2.45
2022-11-09T13:40:33.249Z,2.65
2022-11-09T13:43:02.034Z,2.53
2022-11-09T13:45:48.775Z,2.58
2022-11-09T13:48:27.179Z,2.63
2022-11-09T13:50:56.716Z,2.80
2022-11-09T13:53:37.337Z,2.28
2022-11-09T13:56:28.069Z,2.80
2022-11-09T13:59:00.158Z,2.42
2022-11-09T14:01:36.959Z,2.58
2022-11-09T14:04:05.343Z,3.30
2022-11-09T14:06:33.308Z,2.72
2022-11-09T14:09:01.183Z,2.72
2022-11-09T14:12:00.110Z,2.88
2022-11-09T14:14:51.315Z,2.80
2022-11-09T14:17:25.585Z,2.83
2022-11-09T14:20:26.491Z,2.78
2022-11-09T14:22:53.569Z,3.05
2022-11-09T14:25:24.914Z,2.63
2022-11-09T14:27:58.283Z,2.72
2022-11-09T14:30:30.904Z,2.60
2022-11-09T14:32:58.818Z,2.60
2022-11-09T14:35:32.666Z,2.60
2022-11-09T14:38:02.046Z,2.45
2022-11-09T14:42:59.753Z,3.03
2022-11-09T14:45:28.177Z,2.78
2022-11-09T14:48:00.046Z,2.77
2022-11-09T14:50:30.671Z,2.40
2022-11-09T14:52:58.391Z,3.05
2022-11-09T14:55:26.173Z,2.55
2022-11-09T14:57:55.935Z,2.50
2022-11-09T15:00:33.559Z,2.42
2022-11-09T15:03:21.104Z,2.60
2022-11-09T15:05:48.315Z,2.33
2022-11-09T15:08:22.809Z,2.53
2022-11-09T15:10:52.735Z,2.63
2022-11-09T15:13:41.587Z,2.55
2022-11-09T15:16:08.637Z,3.13
2022-11-09T15:18:41.784Z,2.55
2022-11-09T15:21:27.004Z,2.63
2022-11-09T15:24:25.378Z,2.58
2022-11-09T15:26:53.611Z,3.25
2022-11-09T15:29:28.814Z,2.58
2022-11-09T15:32:11.029Z,2.22
2022-11-09T15:34:41.117Z,2.70
2022-11-09T15:37:29.501Z,3.08
2022-11-09T15:39:58.545Z,2.80
2022-11-09T15:42:26.886Z,2.50
2022-11-09T15:44:56.473Z,2.65
2022-11-09T15:47:34.006Z,2.30
2022-11-09T15:50:03.723Z,2.63
2022-11-09T15:52:30.599Z,2.40
2022-11-09T15:54:57.902Z,2.40
2022-11-09T15:57:24.849Z,2.40
2022-11-09T15:59:52.028Z,2.75
2022-11-09T16:02:19.250Z,2.20
2022-11-09T16:04:46.333Z,2.63
2022-11-09T16:07:16.830Z,2.53
2022-11-09T16:09:43.811Z,2.60
2022-11-09T16:12:11.061Z,2.70
2022-11-09T16:14:38.165Z,3.55
2022-11-09T16:17:05.617Z,3.25
2022-11-09T16:19:32.904Z,2.97
2022-11-09T16:22:02.209Z,2.97
2022-11-09T16:24:30.016Z,2.15
2022-11-09T16:26:57.152Z,2.63
2022-11-09T16:29:27.146Z,2.33
2022-11-09T16:31:54.071Z,3.13
2022-11-09T16:34:21.148Z,2.72
2022-11-09T16:36:52.462Z,2.88
2022-11-09T16:39:25.557Z,3.47
2022-11-09T16:41:53.348Z,5.30
2022-11-09T16:44:23.707Z,3.60
2022-11-09T16:46:52.042Z,3.45
2022-11-09T16:49:18.964Z,3.20
2022-11-09T16:51:45.868Z,3.40
2022-11-09T16:54:12.807Z,3.20
2022-11-09T16:56:39.704Z,3.72
2022-11-09T16:59:06.695Z,4.72
2022-11-09T17:01:33.588Z,4.82
2022-11-09T17:04:00.464Z,3.80
2022-11-09T17:06:28.348Z,4.82
2022-11-09T17:08:58.478Z,4.57
2022-11-09T17:11:25.446Z,4.40
2022-11-09T17:13:59.718Z,4.40
2022-11-09T17:16:26.963Z,4.85
2022-11-09T17:18:55.476Z,5.57
2022-11-09T17:21:24.228Z,5.05
2022-11-09T17:23:51.868Z,4.80
2022-11-09T17:26:19.755Z,4.68
2022-11-09T17:28:46.692Z,4.95
2022-11-09T17:31:19.748Z,4.47
2022-11-09T17:33:47.396Z,5.28
2022-11-09T17:36:25.943Z,5.38
2022-11-09T17:39:06.286Z,5.32
2022-11-09T17:41:33.239Z,4.55
2022-11-09T17:44:01.595Z,4.90
2022-11-09T17:46:28.551Z,5.03
2022-11-09T17:48:55.378Z,4.38
2022-11-09T17:51:22.592Z,5.18
2022-11-09T17:53:49.434Z,4.30
2022-11-09T17:56:16.364Z,4.57
2022-11-09T17:58:44.720Z,4.68
2022-11-09T18:01:14.651Z,4.80
2022-11-09T18:03:41.945Z,4.88
2022-11-09T18:06:29.448Z,4.55
2022-11-09T18:09:25.913Z,6.85
2022-11-09T18:11:44.294Z,4.28
2022-11-09T18:14:11.227Z,5.20
2022-11-09T18:16:38.416Z,4.65
2022-11-09T18:19:05.906Z,4.15
2022-11-09T18:21:33.654Z,4.03
2022-11-09T18:24:00.676Z,4.07
2022-11-09T18:26:27.512Z,3.50
2022-11-09T18:28:57.051Z,3.95
2022-11-09T18:33:51.453Z,3.55
2022-11-09T18:36:21.235Z,3.75
2022-11-09T18:38:51.138Z,3.70
2022-11-09T18:41:20.815Z,3.80
2022-11-09T18:43:48.349Z,4.00
2022-11-09T18:46:17.427Z,3.35
2022-11-09T18:48:44.732Z,3.75
2022-11-09T18:51:12.553Z,4.07
2022-11-09T18:53:42.351Z,4.18
2022-11-09T18:56:19.077Z,4.30
2022-11-09T18:58:46.499Z,3.47
2022-11-09T19:01:13.627Z,3.78
2022-11-09T19:03:40.682Z,3.85
2022-11-09T19:06:18.518Z,4.22
2022-11-09T19:09:04.608Z,3.50
2022-11-09T19:11:32.179Z,3.63
2022-11-09T19:13:59.409Z,4.35
2022-11-09T19:16:27.691Z,3.45
2022-11-09T19:18:55.282Z,3.60
2022-11-09T19:21:25.920Z,3.83
2022-11-09T19:23:53.476Z,3.88
2022-11-09T19:26:21.580Z,3.60
2022-11-09T19:28:48.513Z,4.05
2022-11-09T19:31:18.085Z,3.83
2022-11-09T19:33:45.111Z,4.07
2022-11-09T19:38:59.568Z,3.92
2022-11-09T19:41:26.457Z,3.30
2022-11-09T19:43:58.511Z,3.60
2022-11-09T19:46:26.723Z,3.22
2022-11-09T19:48:53.714Z,3.95
2022-11-09T19:51:20.669Z,3.17
2022-11-09T19:53:55.724Z,3.63
2022-11-09T19:56:24.663Z,3.60
2022-11-09T19:58:53.264Z,3.47
2022-11-09T20:01:20.811Z,3.20
2022-11-09T20:03:55.947Z,3.80
2022-11-09T20:06:24.454Z,3.70
2022-11-09T20:08:52.362Z,3.23
2022-11-09T20:11:39.915Z,3.60
2022-11-09T20:14:08.428Z,3.53
2022-11-09T20:16:36.352Z,4.10
2022-11-09T20:19:04.838Z,3.67
2022-11-09T20:21:32.358Z,4.68
2022-11-09T20:23:59.375Z,4.30
2022-11-09T20:26:26.589Z,3.30
2022-11-09T20:28:54.766Z,2.90
2022-11-09T20:31:23.404Z,3.00
2022-11-09T20:33:50.548Z,3.07
2022-11-09T20:36:18.956Z,2.70
2022-11-09T20:38:47.126Z,3.58
2022-11-09T20:41:14.197Z,2.85
2022-11-09T20:43:41.791Z,2.40
2022-11-09T20:46:15.808Z,2.15
2022-11-09T20:48:58.947Z,2.35
2022-11-09T20:51:26.349Z,2.20
2022-11-09T20:53:53.267Z,2.03
2022-11-09T20:56:21.304Z,1.90
2022-11-09T20:58:48.275Z,1.83
2022-11-09T21:01:20.866Z,2.13
2022-11-09T21:03:50.870Z,2.38
2022-11-09T21:06:19.089Z,2.38
2022-11-09T21:08:47.936Z,3.20
2022-11-09T21:11:14.844Z,2.65
2022-11-09T21:13:42.905Z,3.22
2022-11-09T21:16:17.380Z,3.25
2022-11-09T21:18:46.890Z,3.17
2022-11-09T21:24:07.887Z,3.10
2022-11-09T21:26:53.951Z,3.30
2022-11-09T21:29:42.259Z,3.50
2022-11-09T21:32:10.993Z,4.07
2022-11-09T21:34:38.162Z,4.72
2022-11-09T21:37:05.855Z,5.22
2022-11-09T21:39:33.509Z,3.28
2022-11-09T21:42:01.487Z,5.70
2022-11-09T21:44:29.823Z,4.28
2022-11-09T21:46:56.986Z,3.58
2022-11-09T21:49:24.759Z,4.15
2022-11-09T21:51:51.640Z,4.57
2022-11-09T21:54:19.075Z,4.72
2022-11-09T21:56:48.101Z,4.03
2022-11-09T21:59:15.232Z,4.95
2022-11-09T22:01:42.409Z,5.47
2022-11-09T22:04:10.166Z,4.13
2022-11-09T22:06:39.018Z,5.28
2022-11-09T22:09:07.761Z,5.32
2022-11-09T22:11:53.100Z,4.50
2022-11-09T22:14:39.387Z,3.40
2022-11-09T22:17:08.723Z,4.55
2022-11-09T22:19:56.594Z,5.43
2022-11-09T22:22:23.710Z,5.47
2022-11-09T22:24:50.598Z,5.53
2022-11-09T22:27:17.495Z,5.78
2022-11-09T22:29:46.591Z,5.47
2022-11-09T22:32:13.450Z,5.38
2022-11-09T22:34:40.370Z,5.35
2022-11-09T22:37:07.192Z,6.00
2022-11-09T22:39:34.143Z,6.05
2022-11-09T22:42:00.979Z,5.30
2022-11-09T22:44:27.903Z,4.75
2022-11-09T22:46:55.034Z,5.18
2022-11-09T22:49:21.972Z,6.20
2022-11-09T22:51:48.836Z,6.07
2022-11-09T22:54:15.699Z,5.75
2022-11-09T22:56:42.629Z,5.88
2022-11-09T22:59:09.481Z,6.15
2022-11-09T23:01:36.296Z,5.63
2022-11-09T23:04:03.191Z,5.47
2022-11-09T23:06:30.114Z,6.47
2022-11-09T23:08:56.963Z,6.13
2022-11-09T23:11:25.117Z,5.63
2022-11-09T23:13:53.870Z,5.53
2022-11-09T23:16:21.870Z,5.78
2022-11-09T23:18:55.203Z,6.45
2022-11-09T23:21:28.643Z,6.50
2022-11-09T23:24:01.339Z,5.65
2022-11-09T23:26:28.939Z,7.10
2022-11-09T23:28:56.326Z,6.65
2022-11-09T23:31:27.102Z,6.32
2022-11-09T23:33:56.620Z,7.45
2022-11-09T23:38:51.969Z,6.75
2022-11-09T23:41:19.431Z,6.78
2022-11-09T23:43:49.518Z,6.45
2022-11-09T23:46:17.895Z,6.93
2022-11-09T23:48:45.097Z,7.55
2022-11-09T23:51:12.230Z,6.65
2022-11-09T23:53:39.158Z,5.95
2022-11-09T23:56:09.044Z,6.30
2022-11-09T23:58:36.459Z,6.90
